Time;durP1;ratioP1;P1;durP2;ratioP2;P2;SDS_P1;SDS_P2;PMS_P1;PMS_P2;Temp;Humidity;BMP_temperature;BMP_pressure;BME280_temperature;BME280_humidity;BME280_pressure;Samples;Min_cycle;Max_cycle;Signal;HPM_P1;HPM_P2
2022/09/01 00:02:07;;;;;;;;;5.00;5.00;;;;;23.24;46.71;101522.69;111103;1262;13303;-82
2022/09/01 00:04:35;;;;;;;;;5.00;5.00;;;;;23.23;46.71;101518.79;111040;1262;13339;-82
2022/09/01 00:07:03;;;;;;;;;3.00;3.00;;;;;23.23;46.73;101522.14;111076;1262;13113;-82
2022/09/01 00:09:30;;;;;;;;;3.00;3.00;;;;;23.23;46.73;101519.58;111120;1262;13094;-81
2022/09/01 00:11:57;;;;;;;;;3.67;3.67;;;;;23.23;46.73;101521.86;111042;1262;12972;-83
2022/09/01 00:14:24;;;;;;;;;3.00;3.00;;;;;23.23;46.75;101517.31;111072;1261;13011;-82
2022/09/01 00:16:52;;;;;;;;;5.00;5.00;;;;;23.24;46.76;101517.56;111082;1262;13857;-82
2022/09/01 00:19:20;;;;;;;;;4.33;4.33;;;;;23.24;46.69;101519.02;111030;1262;13047;-81
2022/09/01 00:21:47;;;;;;;;;3.67;3.67;;;;;23.24;46.64;101517.98;111024;1262;13180;-81
2022/09/01 00:24:14;;;;;;;;;5.00;3.00;;;;;23.24;46.68;101519.30;111097;1262;12951;-82
2022/09/01 00:26:41;;;;;;;;;5.00;5.00;;;;;23.23;46.68;101516.60;110947;1264;11615;-81
2022/09/01 00:29:09;;;;;;;;;3.67;3.67;;;;;23.22;46.69;101517.80;111054;1262;15475;-82
2022/09/01 00:31:36;;;;;;;;;3.00;3.00;;;;;23.21;46.68;101521.45;111007;1262;13157;-83
2022/09/01 00:34:03;;;;;;;;;5.00;3.00;;;;;23.21;46.63;101523.59;111066;1262;13062;-82
2022/09/01 00:36:31;;;;;;;;;2.33;2.33;;;;;23.20;46.63;101520.96;111029;1262;12821;-83
2022/09/01 00:38:58;;;;;;;;;3.00;3.00;;;;;23.21;46.54;101522.70;111048;1262;13112;-82
2022/09/01 00:41:25;;;;;;;;;3.00;3.00;;;;;23.20;46.50;101525.89;111072;1262;14597;-83
2022/09/01 00:43:53;;;;;;;;;4.00;3.67;;;;;23.20;46.44;101521.72;111057;1262;13166;-83
2022/09/01 00:46:20;;;;;;;;;3.00;3.00;;;;;23.21;46.37;101520.34;111051;1262;13188;-83
2022/09/01 00:48:48;;;;;;;;;4.00;3.67;;;;;23.20;46.38;101520.24;111080;1263;13085;-83
2022/09/01 00:51:15;;;;;;;;;4.33;4.33;;;;;23.19;46.33;101517.38;111040;1262;17138;-82
2022/09/01 00:53:42;;;;;;;;;3.00;2.33;;;;;23.18;46.28;101521.14;111050;1262;12810;-82
2022/09/01 00:56:10;;;;;;;;;5.00;3.00;;;;;23.17;46.29;101518.13;111080;1262;13284;-82
2022/09/01 00:58:37;;;;;;;;;3.67;3.67;;;;;23.17;46.29;101514.14;111036;1262;13144;-83
2022/09/01 01:01:04;;;;;;;;;3.00;3.00;;;;;23.18;46.22;101517.16;111060;1262;13082;-84
2022/09/01 01:03:31;;;;;;;;;2.00;2.00;;;;;23.17;46.25;101513.64;111111;1261;13209;-84
2022/09/01 01:06:00;;;;;;;;;5.00;3.00;;;;;23.16;46.16;101511.52;111002;1262;13006;-82
2022/09/01 01:08:32;;;;;;;;;3.67;3.67;;;;;23.15;46.13;101514.45;111032;1261;12702;-82
2022/09/01 01:11:00;;;;;;;;;5.33;4.33;;;;;23.13;46.23;101511.34;111022;1262;13164;-82
2022/09/01 01:13:30;;;;;;;;;3.67;3.67;;;;;23.13;46.23;101509.94;111036;1262;12992;-82
2022/09/01 01:15:59;;;;;;;;;5.00;5.00;;;;;23.14;46.19;101515.23;111024;1262;13070;-82
2022/09/01 01:18:26;;;;;;;;;3.00;3.00;;;;;23.13;46.14;101512.77;111088;1262;13491;-83
2022/09/01 01:23:47;;;;;;;;;3.00;3.00;;;;;23.11;46.18;101509.17;110493;1268;12565;-83
2022/09/01 01:26:14;;;;;;;;;3.00;3.00;;;;;23.10;46.18;101511.54;110419;1268;13272;-82
2022/09/01 01:28:43;;;;;;;;;3.00;3.00;;;;;23.10;46.15;101512.52;110430;1268;13236;-83
2022/09/01 01:31:11;;;;;;;;;3.00;3.00;;;;;23.10;46.21;101513.48;110272;1268;13207;-83
2022/09/01 01:33:40;;;;;;;;;2.00;2.00;;;;;23.09;46.17;101510.48;110571;1268;16665;-83
2022/09/01 01:36:11;;;;;;;;;3.67;3.00;;;;;23.10;46.16;101507.88;110422;1268;13112;-82
2022/09/01 01:38:39;;;;;;;;;3.00;3.00;;;;;23.10;46.12;101506.41;110538;1268;13193;-83
2022/09/01 01:41:07;;;;;;;;;3.00;3.00;;;;;23.10;46.07;101506.00;110407;1268;13112;-82
2022/09/01 01:43:34;;;;;;;;;3.67;3.67;;;;;23.10;46.13;101504.19;110516;1268;13263;-83
2022/09/01 01:46:04;;;;;;;;;3.00;3.00;;;;;23.09;46.09;101501.98;110505;1268;13159;-83
2022/09/01 01:48:33;;;;;;;;;3.50;2.50;;;;;23.09;46.11;101505.98;110576;1268;13333;-82
2022/09/01 01:51:00;;;;;;;;;3.00;3.00;;;;;23.10;46.07;101501.87;110451;1268;13153;-83
2022/09/01 01:53:28;;;;;;;;;3.67;3.00;;;;;23.10;46.11;101503.60;110430;1268;12660;-85
2022/09/01 01:55:57;;;;;;;;;2.67;2.67;;;;;23.11;46.05;101502.48;110443;1268;13191;-84
2022/09/01 01:58:24;;;;;;;;;3.67;3.67;;;;;23.10;46.00;101501.42;110348;1268;12838;-83
2022/09/01 02:00:51;;;;;;;;;3.00;3.00;;;;;23.09;45.92;101508.09;110967;1262;13283;-83
2022/09/01 02:03:19;;;;;;;;;3.00;3.00;;;;;23.09;45.94;101509.21;111006;1262;13062;-83
2022/09/01 02:05:46;;;;;;;;;5.00;5.00;;;;;23.09;45.89;101509.08;111094;1262;14479;-82
2022/09/01 02:08:14;;;;;;;;;3.00;3.00;;;;;23.07;45.89;101511.27;111058;1262;13601;-83
2022/09/01 02:10:42;;;;;;;;;3.67;3.00;;;;;23.08;45.89;101511.75;111084;1262;13150;-82
2022/09/01 02:13:14;;;;;;;;;6.00;5.00;;;;;23.07;45.78;101513.66;111055;1262;13274;-83
2022/09/01 02:15:43;;;;;;;;;2.50;2.50;;;;;23.07;45.77;101512.71;111050;1261;18133;-83
2022/09/01 02:18:12;;;;;;;;;2.67;2.67;;;;;23.06;45.70;101510.83;110994;1262;12527;-82
2022/09/01 02:20:39;;;;;;;;;3.00;3.00;;;;;23.06;45.62;101508.87;111080;1262;12928;-82
2022/09/01 02:23:09;;;;;;;;;3.00;3.00;;;;;23.04;45.59;101507.07;111068;1262;13114;-84
2022/09/01 02:25:36;;;;;;;;;2.00;2.00;;;;;23.02;45.62;101501.98;110983;1262;13195;-82
2022/09/01 02:28:08;;;;;;;;;3.00;3.00;;;;;23.02;45.57;101499.64;111046;1262;13214;-83
2022/09/01 02:30:36;;;;;;;;;3.00;3.00;;;;;23.03;45.51;101501.06;111061;1262;13295;-83
2022/09/01 02:33:04;;;;;;;;;3.00;3.00;;;;;23.03;45.46;101503.21;111002;1261;12964;-83
2022/09/01 02:35:33;;;;;;;;;3.67;3.00;;;;;23.01;45.45;101499.56;111059;1262;16763;-83
2022/09/01 02:38:00;;;;;;;;;5.00;4.00;;;;;23.01;45.33;101505.40;111070;1262;13194;-84
2022/09/01 02:40:29;;;;;;;;;2.33;2.00;;;;;23.00;45.31;101504.86;111029;1262;13180;-81
2022/09/01 02:42:57;;;;;;;;;3.00;3.00;;;;;22.99;45.32;101500.63;111024;1262;12707;-81
2022/09/01 02:45:24;;;;;;;;;3.00;3.00;;;;;22.97;45.28;101501.10;111086;1262;13133;-83
2022/09/01 02:47:52;;;;;;;;;3.00;3.00;;;;;22.97;45.29;101498.38;111040;1262;13119;-82
2022/09/01 02:50:21;;;;;;;;;4.33;3.00;;;;;22.97;45.27;101502.73;111082;1262;13166;-83
2022/09/01 02:52:51;;;;;;;;;4.33;3.00;;;;;22.97;45.13;101501.90;111047;1262;13061;-83
2022/09/01 02:55:19;;;;;;;;;3.00;3.00;;;;;22.97;45.23;101501.86;111007;1262;16112;-83
2022/09/01 02:57:47;;;;;;;;;3.00;3.00;;;;;22.97;45.19;101500.77;111132;1262;12962;-84
2022/09/01 03:00:21;;;;;;;;;3.00;3.00;;;;;22.97;45.15;101500.02;111052;1262;13031;-83
2022/09/01 03:02:50;;;;;;;;;3.67;3.67;;;;;22.97;45.06;101502.23;111041;1262;13031;-83
2022/09/01 03:05:24;;;;;;;;;5.00;5.00;;;;;22.96;45.07;101496.19;111060;1262;12348;-82
2022/09/01 03:07:55;;;;;;;;;3.00;3.00;;;;;22.96;45.06;101496.12;111001;1262;13253;-83
2022/09/01 03:10:23;;;;;;;;;3.00;3.00;;;;;22.96;45.02;101489.45;111010;1262;14148;-83
2022/09/01 03:12:50;;;;;;;;;3.00;3.00;;;;;22.95;44.96;101490.95;111066;1263;12374;-81
2022/09/01 03:15:17;;;;;;;;;6.00;5.50;;;;;22.95;44.91;101499.20;111048;1262;14962;-82
2022/09/01 03:17:45;;;;;;;;;3.00;3.00;;;;;22.94;44.91;101493.95;111040;1262;13373;-83
2022/09/01 03:20:12;;;;;;;;;3.00;3.00;;;;;22.95;44.90;101494.51;111078;1262;13177;-83
2022/09/01 03:22:40;;;;;;;;;3.00;3.00;;;;;22.95;44.90;101493.90;111002;1262;12433;-82
2022/09/01 03:25:07;;;;;;;;;5.00;5.00;;;;;22.94;44.89;101492.15;111019;1262;19280;-83
2022/09/01 03:27:34;;;;;;;;;3.00;3.00;;;;;22.93;44.83;101489.55;111038;1262;13090;-83
2022/09/01 03:30:01;;;;;;;;;5.00;5.00;;;;;22.92;44.83;101487.23;111084;1262;13224;-83
2022/09/01 03:32:29;;;;;;;;;3.00;3.00;;;;;22.92;44.89;101488.15;111043;1262;12978;-82
2022/09/01 03:34:56;;;;;;;;;5.00;5.00;;;;;22.93;44.82;101485.55;111031;1262;16507;-84
2022/09/01 03:37:23;;;;;;;;;3.00;3.00;;;;;22.93;44.84;101486.64;111062;1262;12978;-83
2022/09/01 03:39:50;;;;;;;;;5.67;5.00;;;;;22.91;44.83;101488.30;111091;1262;13162;-84
2022/09/01 03:42:18;;;;;;;;;5.00;5.00;;;;;22.91;44.79;101494.89;111053;1262;13227;-83
2022/09/01 03:44:48;;;;;;;;;5.00;5.00;;;;;22.90;44.83;101496.81;111081;1262;13327;-85
2022/09/01 03:47:15;;;;;;;;;3.67;3.67;;;;;22.89;44.85;101496.17;111083;1262;12962;-82
2022/09/01 03:49:44;;;;;;;;;6.00;6.00;;;;;22.88;44.80;101490.99;111058;1262;12910;-82
2022/09/01 03:52:12;;;;;;;;;5.67;5.00;;;;;22.87;44.88;101499.13;111099;1262;13166;-82
2022/09/01 03:54:39;;;;;;;;;5.00;5.00;;;;;22.87;44.86;101497.35;111120;1262;16632;-83
2022/09/01 03:57:08;;;;;;;;;5.33;4.33;;;;;22.88;44.91;101499.98;111145;1262;13073;-83
2022/09/01 03:59:36;;;;;;;;;5.00;5.00;;;;;22.87;44.90;101503.73;111105;1262;13070;-84
2022/09/01 04:02:03;;;;;;;;;5.00;5.00;;;;;22.85;44.93;101504.23;111078;1261;13152;-83
2022/09/01 04:04:32;;;;;;;;;5.00;5.00;;;;;22.85;44.93;101505.12;111104;1262;12716;-82
2022/09/01 04:07:00;;;;;;;;;6.00;6.00;;;;;22.86;44.92;101503.83;111092;1262;12526;-82
2022/09/01 04:09:27;;;;;;;;;6.00;6.00;;;;;22.85;44.95;101505.70;111118;1262;13086;-83
2022/09/01 04:11:54;;;;;;;;;3.67;3.67;;;;;22.86;44.89;101503.10;111137;1261;13378;-83
2022/09/01 04:14:24;;;;;;;;;5.33;5.00;;;;;22.85;44.85;101506.80;111100;1262;13075;-83
2022/09/01 04:19:38;;;;;;;;;5.00;5.00;;;;;22.87;44.75;101506.63;111064;1262;13184;-83
2022/09/01 04:22:06;;;;;;;;;6.50;5.50;;;;;22.87;44.80;101507.94;111093;1262;12838;-82
2022/09/01 04:24:34;;;;;;;;;5.67;5.00;;;;;22.86;44.72;101508.88;111090;1262;13278;-83
2022/09/01 04:27:01;;;;;;;;;5.00;3.00;;;;;22.85;44.67;101508.81;111136;1262;13336;-83
2022/09/01 04:29:29;;;;;;;;;5.00;5.00;;;;;22.86;44.64;101508.77;111057;1261;13046;-83
2022/09/01 04:32:00;;;;;;;;;5.00;5.00;;;;;22.84;44.69;101507.45;111092;1262;13188;-82
2022/09/01 04:34:29;;;;;;;;;6.33;5.00;;;;;22.85;44.63;101510.11;111110;1262;13109;-84
2022/09/01 04:36:58;;;;;;;;;5.00;3.00;;;;;22.83;44.71;101511.03;111150;1262;13113;-83
2022/09/01 04:39:27;;;;;;;;;5.67;5.67;;;;;22.84;44.70;101509.11;111089;1262;13252;-83
2022/09/01 04:41:54;;;;;;;;;5.00;5.00;;;;;22.85;44.66;101508.33;111080;1261;13241;-82
2022/09/01 04:44:22;;;;;;;;;6.00;6.00;;;;;22.85;44.59;101513.05;111067;1262;13081;-83
2022/09/01 04:46:49;;;;;;;;;6.00;6.00;;;;;22.84;44.60;101513.91;111086;1262;13206;-82
2022/09/01 04:49:18;;;;;;;;;6.00;5.00;;;;;22.83;44.63;101516.70;111103;1262;13153;-83
2022/09/01 04:51:45;;;;;;;;;6.00;6.00;;;;;22.82;44.57;101514.07;111070;1262;13097;-83
2022/09/01 04:54:13;;;;;;;;;6.00;6.00;;;;;22.82;44.63;101513.21;111037;1262;12831;-82
2022/09/01 04:56:40;;;;;;;;;5.00;5.00;;;;;22.81;44.67;101515.43;111051;1262;13130;-82
2022/09/01 04:59:09;;;;;;;;;10.00;10.00;;;;;22.80;44.80;101512.64;110970;1262;17795;-84
2022/09/01 05:01:42;;;;;;;;;11.67;11.67;;;;;22.06;45.86;101516.48;110983;1262;13077;-85
2022/09/01 05:04:11;;;;;;;;;12.33;11.00;;;;;21.45;47.02;101517.73;110976;1262;13206;-84
2022/09/01 05:06:40;;;;;;;;;27.33;23.33;;;;;21.02;47.98;101516.79;111069;1262;13100;-86
2022/09/01 05:09:08;;;;;;;;;21.67;19.00;;;;;20.83;48.49;101517.50;111005;1262;13180;-84
2022/09/01 05:11:37;;;;;;;;;16.00;15.33;;;;;20.68;48.91;101514.01;111041;1262;12952;-84
2022/09/01 05:14:05;;;;;;;;;17.67;14.33;;;;;20.63;49.19;101510.73;110998;1262;13113;-85
2022/09/01 05:16:33;;;;;;;;;16.67;16.67;;;;;20.51;49.57;101507.23;110111;1262;1194931;-85
2022/09/01 05:19:00;;;;;;;;;11.67;10.33;;;;;20.48;49.97;101502.16;111019;1261;10517;-84
2022/09/01 05:21:28;;;;;;;;;13.33;11.33;;;;;20.43;50.24;101504.21;111087;1261;13274;-85
2022/09/01 05:23:55;;;;;;;;;11.00;11.00;;;;;20.50;50.24;101502.02;111010;1262;13223;-83
2022/09/01 05:26:23;;;;;;;;;13.00;12.67;;;;;20.49;50.43;101504.84;110955;1262;14573;-84
2022/09/01 05:28:52;;;;;;;;;11.00;10.00;;;;;20.59;50.39;101500.40;111027;1262;13089;-84
2022/09/01 05:31:19;;;;;;;;;13.00;12.00;;;;;20.57;50.52;101502.44;111039;1262;13166;-85
2022/09/01 05:33:47;;;;;;;;;8.67;8.67;;;;;20.68;50.49;101498.73;111059;1262;13189;-83
2022/09/01 05:36:14;;;;;;;;;10.00;9.00;;;;;21.19;49.78;101500.89;111000;1262;12977;-83
2022/09/01 05:38:42;;;;;;;;;9.00;8.33;;;;;21.71;48.78;101494.44;110985;1262;13131;-82
2022/09/01 05:41:10;;;;;;;;;7.67;7.00;;;;;22.02;48.01;101494.34;111094;1262;13189;-83
2022/09/01 05:43:38;;;;;;;;;7.00;7.00;;;;;22.20;47.62;101494.38;111028;1262;13180;-82
2022/09/01 05:46:05;;;;;;;;;9.00;9.00;;;;;22.31;47.30;101501.87;111023;1262;13155;-81
2022/09/01 05:48:34;;;;;;;;;8.00;6.33;;;;;22.38;47.10;101506.74;111088;1262;13189;-82
2022/09/01 05:51:03;;;;;;;;;8.00;7.00;;;;;22.43;47.05;101506.48;111095;1261;13126;-82
2022/09/01 05:53:30;;;;;;;;;7.00;6.67;;;;;22.47;46.91;101507.64;111037;1262;12711;-83
2022/09/01 05:55:57;;;;;;;;;6.00;5.00;;;;;22.50;46.85;101506.91;111047;1261;13157;-83
2022/09/01 05:58:25;;;;;;;;;7.00;6.00;;;;;22.52;46.89;101508.91;110994;1262;16750;-83
2022/09/01 06:00:52;;;;;;;;;6.00;6.00;;;;;22.55;46.81;101514.94;111071;1262;12595;-83
2022/09/01 06:03:20;;;;;;;;;5.00;5.00;;;;;22.56;46.70;101508.58;111066;1262;13856;-83
2022/09/01 06:05:51;;;;;;;;;9.00;7.00;;;;;22.60;46.81;101505.47;110908;1262;12994;-82
2022/09/01 06:08:18;;;;;;;;;5.00;5.00;;;;;22.63;47.02;101499.09;111388;1262;14788;-83
2022/09/01 06:10:47;;;;;;;;;6.00;5.33;;;;;22.73;47.04;101498.52;111549;1262;12882;-83
2022/09/01 06:13:14;;;;;;;;;5.67;5.67;;;;;22.80;47.06;101501.53;111142;1262;12956;-82
2022/09/01 06:15:43;;;;;;;;;7.00;6.00;;;;;22.83;47.01;101500.67;111079;1261;13094;-81
2022/09/01 06:18:10;;;;;;;;;6.33;6.00;;;;;22.89;46.95;101502.04;111050;1262;12998;-82
2022/09/01 06:20:39;;;;;;;;;5.00;5.00;;;;;22.98;46.67;101501.08;111061;1262;12092;-82
2022/09/01 06:23:06;;;;;;;;;7.00;6.00;;;;;23.04;46.55;101503.48;111085;1262;14515;-81
2022/09/01 06:25:33;;;;;;;;;6.00;6.00;;;;;23.10;46.44;101503.47;110971;1262;13078;-82
2022/09/01 06:28:03;;;;;;;;;3.67;3.00;;;;;23.13;46.41;101509.52;111028;1262;13232;-80
2022/09/01 06:30:35;;;;;;;;;8.00;6.33;;;;;23.18;46.46;101511.63;110911;1262;13197;-80
2022/09/01 06:33:08;;;;;;;;;3.67;3.67;;;;;23.25;46.63;101510.17;110836;1262;13149;-82
2022/09/01 06:35:35;;;;;;;;;6.00;6.00;;;;;23.32;46.74;101513.34;111069;1262;13201;-86
2022/09/01 06:38:03;;;;;;;;;8.00;8.00;;;;;23.25;46.94;101512.52;110895;1262;13086;-83
2022/09/01 06:40:31;;;;;;;;;8.00;7.00;;;;;23.10;47.13;101513.66;111012;1261;13006;-83
2022/09/01 06:43:06;;;;;;;;;11.33;11.00;;;;;22.95;47.32;101513.45;110992;1261;13252;-82
2022/09/01 06:45:34;;;;;;;;;10.00;9.67;;;;;22.85;47.48;101518.52;111045;1262;13269;-82
2022/09/01 06:48:01;;;;;;;;;7.00;7.00;;;;;22.86;47.71;101516.92;111061;1262;13219;-82
2022/09/01 06:50:28;;;;;;;;;7.00;7.00;;;;;23.01;47.75;101518.19;111003;1262;12986;-84
2022/09/01 06:53:09;;;;;;;;;6.00;6.00;;;;;23.14;47.74;101518.48;111039;1262;12807;-83
2022/09/01 06:55:36;;;;;;;;;5.33;5.33;;;;;23.23;47.73;101522.10;111029;1262;16041;-83
2022/09/01 06:58:06;;;;;;;;;7.00;7.00;;;;;23.27;47.83;101516.73;111104;1262;12933;-83
2022/09/01 07:00:34;;;;;;;;;14.00;10.50;;;;;23.23;47.67;101515.89;111089;1262;13197;-83
2022/09/01 07:03:02;;;;;;;;;16.00;15.00;;;;;22.97;47.98;101519.53;111048;1262;16769;-82
2022/09/01 07:05:33;;;;;;;;;17.00;16.00;;;;;22.80;48.26;101517.80;111055;1261;13425;-83
2022/09/01 07:08:06;;;;;;;;;16.00;15.67;;;;;22.60;48.36;101518.95;111045;1262;12860;-82
2022/09/01 07:10:34;;;;;;;;;15.00;14.00;;;;;22.07;49.22;101515.65;111114;1262;13918;-81
2022/09/01 07:13:02;;;;;;;;;10.00;10.00;;;;;22.01;49.53;101519.92;111170;1261;13034;-83
2022/09/01 07:15:31;;;;;;;;;10.00;10.00;;;;;21.97;49.68;101518.58;111115;1261;12936;-84
2022/09/01 07:17:58;;;;;;;;;11.67;11.00;;;;;22.14;49.67;101516.41;111032;1262;12982;-84
2022/09/01 07:20:25;;;;;;;;;9.33;9.00;;;;;22.39;49.40;101516.93;111055;1262;16503;-87
2022/09/01 07:22:53;;;;;;;;;7.67;7.00;;;;;22.52;49.04;101514.69;111059;1262;13177;-86
2022/09/01 07:25:20;;;;;;;;;6.33;6.33;;;;;22.43;48.78;101519.60;111038;1262;13251;-86
2022/09/01 07:27:49;;;;;;;;;6.00;6.00;;;;;22.40;48.74;101523.45;111106;1262;13199;-86
2022/09/01 07:30:17;;;;;;;;;5.00;5.00;;;;;22.25;48.67;101521.38;111054;1262;12994;-84
2022/09/01 07:32:45;;;;;;;;;5.67;5.67;;;;;22.00;48.85;101526.60;111065;1262;12812;-84
2022/09/01 07:35:12;;;;;;;;;5.00;5.00;;;;;22.04;48.68;101526.31;111037;1262;14187;-83
2022/09/01 07:37:40;;;;;;;;;5.00;5.00;;;;;22.02;48.64;101523.45;111071;1262;14082;-86
2022/09/01 07:40:07;;;;;;;;;7.00;7.00;;;;;22.01;48.81;101518.12;111093;1262;17816;-85
2022/09/01 07:42:35;;;;;;;;;6.00;6.00;;;;;21.97;48.85;101522.95;111119;1262;13289;-84
2022/09/01 07:45:07;;;;;;;;;5.00;5.00;;;;;21.88;48.90;101525.14;111034;1262;13196;-83
2022/09/01 07:47:36;;;;;;;;;5.33;5.33;;;;;21.92;48.93;101523.48;111103;1262;13081;-83
2022/09/01 07:50:07;;;;;;;;;5.00;5.00;;;;;21.83;48.93;101528.02;111069;1262;13307;-86
2022/09/01 07:52:35;;;;;;;;;5.00;5.00;;;;;21.74;48.98;101529.89;111021;1261;13132;-82
2022/09/01 07:55:02;;;;;;;;;5.00;5.00;;;;;21.69;49.13;101526.98;111137;1261;13105;-84
2022/09/01 07:57:30;;;;;;;;;5.00;5.00;;;;;21.69;49.31;101527.77;111034;1261;13197;-85
2022/09/01 07:59:58;;;;;;;;;4.33;4.33;;;;;21.54;49.49;101531.66;111057;1262;12734;-83
2022/09/01 08:02:26;;;;;;;;;7.00;6.00;;;;;21.46;49.90;101531.14;111052;1261;13082;-82
2022/09/01 08:04:54;;;;;;;;;5.00;5.00;;;;;21.66;49.64;101529.87;111067;1261;14380;-83
2022/09/01 08:07:21;;;;;;;;;7.00;6.33;;;;;21.82;49.55;101529.83;111040;1262;12958;-83
2022/09/01 08:09:48;;;;;;;;;6.00;6.00;;;;;21.85;49.53;101526.70;111089;1262;13106;-85
2022/09/01 08:12:16;;;;;;;;;7.00;7.00;;;;;22.01;49.35;101530.23;111042;1262;13033;-83
2022/09/01 08:14:44;;;;;;;;;6.67;6.67;;;;;22.08;49.38;101533.58;111084;1261;13237;-83
2022/09/01 08:17:11;;;;;;;;;8.33;8.00;;;;;22.02;49.54;101536.55;111050;1262;13194;-84
2022/09/01 08:19:39;;;;;;;;;6.33;5.67;;;;;22.21;49.20;101533.27;111129;1261;13190;-82
2022/09/01 08:22:06;;;;;;;;;9.00;9.00;;;;;22.23;48.98;101531.20;111074;1262;13921;-82
2022/09/01 08:24:33;;;;;;;;;7.00;7.00;;;;;22.07;49.04;101532.45;111004;1262;13137;-83
2022/09/01 08:27:01;;;;;;;;;7.00;7.00;;;;;21.98;49.13;101533.86;111049;1262;12818;-83
2022/09/01 08:29:28;;;;;;;;;6.00;6.00;;;;;21.88;49.18;101534.94;111069;1261;13130;-82
2022/09/01 08:31:57;;;;;;;;;6.00;6.00;;;;;21.81;49.14;101535.77;111097;1262;13206;-82
2022/09/01 08:34:25;;;;;;;;;6.33;5.00;;;;;21.85;48.92;101528.76;111122;1261;12981;-83
2022/09/01 08:36:53;;;;;;;;;3.00;3.00;;;;;21.97;48.71;101533.42;111118;1262;13169;-83
2022/09/01 08:39:20;;;;;;;;;10.67;9.67;;;;;21.95;48.51;101532.27;111036;1262;13064;-82
2022/09/01 08:41:47;;;;;;;;;4.33;4.33;;;;;21.97;48.46;101537.70;111030;1262;13062;-82
2022/09/01 08:44:15;;;;;;;;;3.00;3.00;;;;;21.87;48.49;101535.95;111055;1262;12804;-82
2022/09/01 08:46:42;;;;;;;;;6.67;6.67;;;;;21.91;48.52;101533.20;111057;1262;12662;-83
2022/09/01 08:49:09;;;;;;;;;6.00;6.00;;;;;22.08;48.30;101532.03;111031;1262;15056;-82
2022/09/01 08:51:37;;;;;;;;;3.00;3.00;;;;;22.19;48.14;101533.32;111084;1262;12970;-82
2022/09/01 08:54:04;;;;;;;;;4.67;4.67;;;;;22.07;48.07;101530.52;111075;1262;13190;-83
2022/09/01 08:56:31;;;;;;;;;5.00;3.00;;;;;21.79;48.08;101534.86;111082;1262;16602;-84
2022/09/01 08:58:59;;;;;;;;;6.00;6.00;;;;;21.63;48.10;101535.14;111143;1261;13067;-83
2022/09/01 09:01:27;;;;;;;;;6.00;5.00;;;;;21.73;47.64;101532.39;111098;1262;12981;-82
2022/09/01 09:03:54;;;;;;;;;10.00;10.00;;;;;22.05;47.17;101531.65;111148;1261;13118;-82
2022/09/01 09:06:21;;;;;;;;;5.67;5.67;;;;;22.21;46.27;101532.77;111080;1262;13230;-83
2022/09/01 09:08:50;;;;;;;;;4.00;4.00;;;;;22.29;45.82;101532.17;111056;1262;13097;-85
2022/09/01 09:11:17;;;;;;;;;4.00;4.00;;;;;22.38;45.07;101523.38;111095;1262;13187;-83
2022/09/01 09:13:44;;;;;;;;;6.33;5.67;;;;;22.41;44.64;101522.09;111031;1261;12606;-81
2022/09/01 09:16:12;;;;;;;;;5.00;5.00;;;;;22.25;44.75;101520.43;111108;1262;13011;-81
2022/09/01 09:18:39;;;;;;;;;3.00;3.00;;;;;22.33;44.43;101520.95;111092;1262;13086;-84
2022/09/01 09:21:06;;;;;;;;;3.00;3.00;;;;;22.43;44.25;101528.27;111061;1262;13050;-82
2022/09/01 09:23:33;;;;;;;;;4.50;4.50;;;;;22.36;44.03;101525.36;111002;1262;17513;-83
2022/09/01 09:26:01;;;;;;;;;2.33;2.33;;;;;22.39;43.56;101524.88;111077;1262;13063;-82
2022/09/01 09:28:28;;;;;;;;;2.00;2.00;;;;;22.46;42.73;101522.26;111048;1262;12778;-83
2022/09/01 09:30:56;;;;;;;;;2.00;2.00;;;;;22.51;42.12;101520.80;111041;1262;12974;-80
2022/09/01 09:33:24;;;;;;;;;4.33;4.33;;;;;22.44;42.06;101517.07;111083;1262;13042;-80
2022/09/01 09:35:53;;;;;;;;;5.00;4.33;;;;;22.20;42.47;101518.81;111052;1262;12988;-83
2022/09/01 09:38:21;;;;;;;;;3.67;3.67;;;;;22.19;43.26;101519.84;110982;1262;12334;-82
2022/09/01 09:40:49;;;;;;;;;7.00;7.00;;;;;22.30;44.11;101518.29;110954;1261;16630;-82
2022/09/01 09:43:19;;;;;;;;;75.00;59.00;;;;;22.38;44.53;101515.30;111072;1262;13251;-80
2022/09/01 09:45:47;;;;;;;;;87.33;69.00;;;;;22.45;44.76;101512.78;111093;1262;13570;-82
2022/09/01 09:48:14;;;;;;;;;147.25;125.75;;;;;22.55;44.70;101510.14;110999;1262;10528;-81
2022/09/01 09:50:42;;;;;;;;;88.00;67.33;;;;;22.69;44.95;101507.01;111051;1262;10796;-85
2022/09/01 09:53:09;;;;;;;;;51.00;45.00;;;;;22.81;44.84;101505.16;111056;1262;12231;-85
2022/09/01 09:55:36;;;;;;;;;29.00;25.67;;;;;22.85;44.64;101503.35;111041;1262;13281;-82
2022/09/01 09:58:04;;;;;;;;;15.00;14.00;;;;;22.90;44.29;101506.06;111076;1262;13212;-82
2022/09/01 10:00:32;;;;;;;;;10.00;9.67;;;;;22.77;43.79;101505.58;111063;1262;13068;-83
2022/09/01 10:03:01;;;;;;;;;6.33;6.00;;;;;22.67;43.68;101503.32;111090;1262;13170;-83
2022/09/01 10:05:28;;;;;;;;;3.00;3.00;;;;;22.85;43.47;101503.52;111083;1261;13105;-86
2022/09/01 10:07:56;;;;;;;;;3.00;3.00;;;;;22.75;43.00;101505.05;110984;1262;13017;-83
2022/09/01 10:10:24;;;;;;;;;5.00;5.00;;;;;22.78;43.01;101498.30;111016;1262;12674;-84
2022/09/01 10:12:51;;;;;;;;;5.67;5.00;;;;;22.57;42.93;101502.36;111106;1262;13145;-83
2022/09/01 10:15:18;;;;;;;;;9.00;6.00;;;;;22.60;43.44;101494.84;111013;1262;13056;-83
2022/09/01 10:17:46;;;;;;;;;3.00;2.67;;;;;22.58;43.49;101500.52;111123;1262;17127;-85
2022/09/01 10:20:16;;;;;;;;;2.00;2.00;;;;;22.61;43.42;101496.52;111072;1262;13100;-84
2022/09/01 10:22:43;;;;;;;;;2.00;2.00;;;;;22.61;43.23;101503.32;111083;1262;12449;-85
2022/09/01 10:25:13;;;;;;;;;2.00;2.00;;;;;22.55;43.03;101504.38;111082;1262;12985;-85
2022/09/01 10:27:45;;;;;;;;;2.00;2.00;;;;;22.36;42.79;101501.94;111049;1262;12847;-84
2022/09/01 10:30:13;;;;;;;;;5.00;5.00;;;;;22.25;43.02;101504.11;111061;1262;13191;-85
2022/09/01 10:32:43;;;;;;;;;2.00;2.00;;;;;22.36;43.34;101499.73;111031;1262;13197;-84
2022/09/01 10:35:11;;;;;;;;;3.00;3.00;;;;;22.48;43.44;101494.56;111028;1262;13122;-84
2022/09/01 10:37:38;;;;;;;;;2.67;2.67;;;;;22.58;43.58;101493.27;110904;1262;13074;-85
2022/09/01 10:40:05;;;;;;;;;3.67;3.00;;;;;22.40;44.18;101495.86;111070;1262;13096;-84
2022/09/01 10:42:33;;;;;;;;;4.33;4.33;;;;;22.45;44.41;101491.80;110946;1262;15129;-84
2022/09/01 10:45:01;;;;;;;;;5.00;5.00;;;;;22.28;44.64;101493.37;110993;1262;13112;-86
2022/09/01 10:47:29;;;;;;;;;5.67;5.00;;;;;22.31;44.91;101496.13;110960;1262;13253;-83
2022/09/01 10:49:58;;;;;;;;;5.33;5.00;;;;;22.26;44.86;101491.55;110989;1262;12597;-85
2022/09/01 10:52:26;;;;;;;;;5.00;5.00;;;;;22.18;44.84;101493.14;110977;1261;13134;-84
2022/09/01 10:54:53;;;;;;;;;4.33;4.33;;;;;22.12;45.01;101493.64;111072;1261;13130;-86
2022/09/01 10:57:23;;;;;;;;;3.67;3.00;;;;;21.96;45.23;101492.98;111074;1262;13840;-84
2022/09/01 10:59:52;;;;;;;;;3.00;3.00;;;;;22.04;45.28;101491.79;110978;1262;13089;-86
2022/09/01 11:02:19;;;;;;;;;3.00;3.00;;;;;22.00;45.19;101492.94;111003;1262;13110;-83
2022/09/01 11:04:47;;;;;;;;;3.00;3.00;;;;;22.24;45.01;101493.55;110960;1262;13147;-86
2022/09/01 11:07:15;;;;;;;;;3.67;3.67;;;;;22.45;44.95;101492.52;110902;1262;13154;-84
2022/09/01 11:09:42;;;;;;;;;5.00;3.67;;;;;22.62;44.71;101486.81;111101;1262;13176;-83
2022/09/01 11:12:10;;;;;;;;;3.00;3.00;;;;;22.56;44.46;101490.41;111135;1262;12810;-82
2022/09/01 11:14:37;;;;;;;;;5.00;5.00;;;;;22.45;44.41;101494.19;111035;1261;12877;-81
2022/09/01 11:17:05;;;;;;;;;3.00;3.00;;;;;22.49;44.17;101488.86;111048;1262;13234;-83
2022/09/01 11:19:32;;;;;;;;;5.00;3.67;;;;;22.58;44.13;101490.34;111109;1262;14505;-80
2022/09/01 11:21:59;;;;;;;;;5.00;5.00;;;;;22.60;44.02;101489.59;110989;1262;13146;-81
2022/09/01 11:24:27;;;;;;;;;3.00;3.00;;;;;22.65;43.90;101489.73;111030;1262;12987;-83